createdAt,value
2023-02-22T00:00:44.985Z,2.03
2023-02-22T00:03:51.523Z,1.63
2023-02-22T00:06:53.747Z,1.45
2023-02-22T00:09:55.250Z,1.40
2023-02-22T00:12:57.066Z,1.67
2023-02-22T00:15:58.744Z,1.47
2023-02-22T00:19:00.246Z,1.43
2023-02-22T00:22:01.700Z,1.70
2023-02-22T00:25:03.177Z,1.38
2023-02-22T00:28:05.037Z,1.85
2023-02-22T00:31:06.743Z,1.40
2023-02-22T00:34:08.198Z,1.53
2023-02-22T00:37:10.946Z,1.52
2023-02-22T00:43:14.459Z,1.40
2023-02-22T00:46:16.035Z,1.40
2023-02-22T00:49:17.554Z,2.22
2023-02-22T00:52:19.007Z,2.95
2023-02-22T00:55:31.349Z,2.17
2023-02-22T00:58:32.779Z,1.90
2023-02-22T01:01:34.766Z,2.45
2023-02-22T01:04:36.325Z,1.77
2023-02-22T01:07:37.940Z,1.58
2023-02-22T01:10:39.536Z,1.65
2023-02-22T01:13:41.070Z,1.83
2023-02-22T01:16:42.646Z,1.60
2023-02-22T01:19:44.185Z,1.55
2023-02-22T01:22:46.891Z,1.30
2023-02-22T01:28:49.652Z,1.10
2023-02-22T01:31:52.899Z,1.85
2023-02-22T01:34:54.491Z,1.63
2023-02-22T01:37:56.471Z,1.42
2023-02-22T01:40:57.998Z,1.50
2023-02-22T01:44:29.815Z,1.27
2023-02-22T01:47:31.253Z,1.58
2023-02-22T01:50:40.560Z,1.67
2023-02-22T01:54:13.598Z,1.33
2023-02-22T01:57:24.598Z,1.63
2023-02-22T02:00:27.611Z,1.48
2023-02-22T02:03:30.789Z,1.25
2023-02-22T02:06:33.749Z,1.42
2023-02-22T02:09:39.925Z,1.40
2023-02-22T02:12:43.799Z,1.30
2023-02-22T02:15:45.875Z,1.33
2023-02-22T02:18:47.398Z,1.27
2023-02-22T02:22:08.094Z,1.20
2023-02-22T02:25:18.465Z,1.17
2023-02-22T02:28:22.755Z,1.20
2023-02-22T02:32:01.733Z,1.80
2023-02-22T02:35:21.449Z,1.40
2023-02-22T02:38:44.241Z,1.15
2023-02-22T02:41:48.371Z,1.52
2023-02-22T02:45:11.210Z,1.25
2023-02-22T02:48:12.838Z,1.40
2023-02-22T02:51:14.546Z,1.20
2023-02-22T02:54:16.256Z,1.33
2023-02-22T02:57:17.784Z,1.05
2023-02-22T03:00:23.767Z,1.20
2023-02-22T03:03:45.033Z,1.17
2023-02-22T03:07:11.303Z,1.42
2023-02-22T03:10:21.610Z,1.25
2023-02-22T03:14:08.054Z,1.17
2023-02-22T03:17:30.208Z,1.00
2023-02-22T03:20:45.409Z,1.60
2023-02-22T03:24:05.429Z,1.30
2023-02-22T03:27:12.402Z,1.30
2023-02-22T03:30:18.454Z,1.15
2023-02-22T03:33:28.717Z,1.20
2023-02-22T03:36:39.382Z,1.15
2023-02-22T03:39:41.929Z,1.20
2023-02-22T03:42:48.205Z,1.00
2023-02-22T03:45:49.796Z,1.40
2023-02-22T03:48:58.519Z,1.20
2023-02-22T03:52:00.003Z,1.27
2023-02-22T03:55:01.544Z,1.10
2023-02-22T03:58:06.569Z,1.33
2023-02-22T04:01:08.024Z,1.30
2023-02-22T04:04:09.479Z,1.38
2023-02-22T04:07:10.923Z,1.00
2023-02-22T04:10:12.728Z,1.40
2023-02-22T04:13:14.656Z,1.20
2023-02-22T04:16:16.245Z,1.10
2023-02-22T04:19:17.758Z,1.95
2023-02-22T04:22:19.219Z,2.63
2023-02-22T04:25:21.463Z,1.55
2023-02-22T04:28:22.963Z,1.52
2023-02-22T04:31:24.421Z,1.45
2023-02-22T04:34:25.882Z,1.20
2023-02-22T04:37:27.362Z,1.23
2023-02-22T04:40:28.929Z,1.00
2023-02-22T04:43:30.387Z,1.58
2023-02-22T04:46:32.009Z,1.58
2023-02-22T04:49:33.636Z,1.20
2023-02-22T04:52:35.068Z,1.50
2023-02-22T04:55:36.637Z,1.88
2023-02-22T04:58:38.094Z,1.05
2023-02-22T05:01:39.560Z,1.45
2023-02-22T05:04:41.112Z,1.30
2023-02-22T05:07:42.617Z,1.35
2023-02-22T05:10:44.106Z,1.10
2023-02-22T05:13:45.531Z,1.17
2023-02-22T05:16:49.575Z,1.55
2023-02-22T05:19:51.035Z,1.40
2023-02-22T05:22:52.528Z,1.40
2023-02-22T05:25:53.981Z,2.15
2023-02-22T05:28:55.442Z,1.50
2023-02-22T05:31:58.279Z,1.80
2023-02-22T05:34:59.817Z,1.83
2023-02-22T05:38:03.196Z,1.55
2023-02-22T05:41:05.332Z,1.80
2023-02-22T05:44:06.895Z,2.78
2023-02-22T05:47:08.340Z,2.83
2023-02-22T05:50:10.047Z,1.70
2023-02-22T05:53:11.533Z,2.08
2023-02-22T05:56:13.001Z,1.48
2023-02-22T05:59:14.954Z,1.42
2023-02-22T06:02:16.500Z,1.70
2023-02-22T06:05:18.152Z,2.15
2023-02-22T06:08:21.672Z,2.63
2023-02-22T06:11:23.134Z,1.80
2023-02-22T06:14:24.570Z,1.73
2023-02-22T06:17:26.045Z,1.65
2023-02-22T06:20:28.652Z,2.15
2023-02-22T06:23:30.097Z,2.10
2023-02-22T06:26:31.532Z,2.03
2023-02-22T06:29:33.043Z,2.05
2023-02-22T06:32:34.507Z,2.17
2023-02-22T06:35:35.958Z,2.28
2023-02-22T06:38:37.393Z,1.95
2023-02-22T06:41:38.880Z,2.50
2023-02-22T06:44:40.438Z,2.90
2023-02-22T06:47:41.939Z,1.90
2023-02-22T06:50:43.481Z,1.42
2023-02-22T06:53:45.020Z,1.63
2023-02-22T06:56:46.491Z,1.65
2023-02-22T06:59:47.941Z,1.38
2023-02-22T07:02:49.448Z,1.70
2023-02-22T07:05:51.061Z,1.83
2023-02-22T07:08:52.527Z,1.73
2023-02-22T07:11:54.073Z,1.70
2023-02-22T07:14:56.408Z,1.83
2023-02-22T07:17:57.886Z,8.10
2023-02-22T07:20:59.375Z,4.80
2023-02-22T07:24:00.845Z,3.65
2023-02-22T07:27:02.596Z,3.80
2023-02-22T07:30:25.193Z,4.43
2023-02-22T07:33:26.851Z,3.60
2023-02-22T07:36:28.378Z,2.70
2023-02-22T07:39:30.057Z,2.47
2023-02-22T07:42:33.021Z,2.53
2023-02-22T07:45:35.278Z,2.22
2023-02-22T07:48:36.727Z,2.05
2023-02-22T07:51:38.225Z,2.30
2023-02-22T07:54:39.748Z,2.33
2023-02-22T07:57:41.211Z,2.10
2023-02-22T08:00:44.089Z,2.38
2023-02-22T08:03:47.484Z,2.40
2023-02-22T08:06:50.165Z,1.75
2023-02-22T08:09:51.658Z,2.17
2023-02-22T08:12:53.126Z,2.35
2023-02-22T08:15:54.760Z,2.13
2023-02-22T08:18:56.250Z,1.67
2023-02-22T08:21:57.779Z,1.70
2023-02-22T08:24:59.396Z,1.88
2023-02-22T08:28:10.454Z,2.85
2023-02-22T08:31:11.960Z,4.45
2023-02-22T08:34:13.413Z,2.55
2023-02-22T08:37:18.083Z,2.78
2023-02-22T08:40:22.021Z,3.03
2023-02-22T08:43:23.699Z,3.03
2023-02-22T08:46:25.206Z,5.50
2023-02-22T08:49:26.648Z,6.18
2023-02-22T08:52:28.251Z,4.78
2023-02-22T08:55:32.308Z,4.97
2023-02-22T08:58:33.846Z,3.35
2023-02-22T09:01:35.768Z,2.72
2023-02-22T09:04:37.422Z,3.45
2023-02-22T09:07:41.919Z,3.22
2023-02-22T09:10:45.248Z,2.83
2023-02-22T09:13:46.707Z,4.43
2023-02-22T09:16:48.353Z,3.23
2023-02-22T09:19:49.867Z,4.00
2023-02-22T09:22:51.372Z,3.57
2023-02-22T09:25:52.836Z,6.40
2023-02-22T09:28:54.273Z,4.67
2023-02-22T09:31:56.386Z,4.77
2023-02-22T09:38:00.108Z,4.50
2023-02-22T09:41:19.721Z,5.80
2023-02-22T09:44:29.594Z,19.00
2023-02-22T09:47:38.872Z,18.55
2023-02-22T09:50:42.300Z,12.45
2023-02-22T09:53:45.576Z,11.80
2023-02-22T09:56:47.139Z,11.10
2023-02-22T10:00:14.374Z,14.70
2023-02-22T10:03:35.247Z,8.05
2023-02-22T10:06:36.767Z,7.47
2023-02-22T10:09:42.531Z,8.15
2023-02-22T10:13:19.281Z,8.55
2023-02-22T10:16:29.048Z,8.52
2023-02-22T10:20:06.395Z,8.15
2023-02-22T10:23:16.126Z,6.60
2023-02-22T10:26:20.978Z,7.15
2023-02-22T10:29:42.459Z,6.65
2023-02-22T10:32:45.501Z,6.70
2023-02-22T10:35:47.317Z,6.57
2023-02-22T10:38:54.300Z,7.60
2023-02-22T10:41:57.367Z,6.70
2023-02-22T10:44:58.866Z,7.55
2023-02-22T10:48:08.353Z,7.05
2023-02-22T10:51:09.986Z,6.78
2023-02-22T10:54:14.325Z,5.85
2023-02-22T10:57:18.422Z,4.97
2023-02-22T11:00:30.407Z,5.25
2023-02-22T11:06:34.907Z,4.90
2023-02-22T11:09:47.440Z,6.68
2023-02-22T11:12:49.601Z,6.72
2023-02-22T11:15:51.141Z,6.40
2023-02-22T11:19:03.014Z,7.63
2023-02-22T11:22:11.414Z,7.65
2023-02-22T11:25:18.877Z,7.45
2023-02-22T11:28:31.090Z,8.88
2023-02-22T11:31:32.757Z,8.70
2023-02-22T11:34:37.927Z,9.10
2023-02-22T11:37:39.578Z,9.50
2023-02-22T11:40:41.011Z,7.95
2023-02-22T11:43:43.509Z,8.57
2023-02-22T11:46:45.010Z,8.95
2023-02-22T11:49:47.330Z,8.70
2023-02-22T11:52:51.282Z,8.48
2023-02-22T11:56:28.421Z,8.00
2023-02-22T11:59:51.720Z,8.43
2023-02-22T12:03:23.217Z,8.57
2023-02-22T12:06:49.731Z,8.45
2023-02-22T12:10:22.793Z,8.35
2023-02-22T12:13:42.995Z,8.38
2023-02-22T12:17:03.191Z,7.78
2023-02-22T12:20:24.751Z,9.00
2023-02-22T12:23:41.514Z,8.23
2023-02-22T12:26:51.196Z,9.30
2023-02-22T12:29:57.677Z,9.38
2023-02-22T12:33:00.339Z,8.52
2023-02-22T12:36:01.872Z,9.18
2023-02-22T12:39:07.392Z,9.00
2023-02-22T12:42:16.406Z,8.05
2023-02-22T12:45:34.819Z,8.13
2023-02-22T12:48:43.721Z,8.55
2023-02-22T12:51:51.579Z,8.73
2023-02-22T12:55:01.859Z,6.50
2023-02-22T12:58:38.919Z,6.57
2023-02-22T13:01:42.232Z,6.13
2023-02-22T13:04:43.739Z,5.85
2023-02-22T13:08:17.597Z,6.35
2023-02-22T13:11:26.427Z,6.57
2023-02-22T13:14:36.461Z,6.95
2023-02-22T13:18:01.945Z,6.10
2023-02-22T13:21:39.721Z,8.13
2023-02-22T13:24:56.534Z,8.80
2023-02-22T13:28:13.129Z,9.32
2023-02-22T13:31:41.077Z,8.93
2023-02-22T13:35:10.882Z,8.98
2023-02-22T13:38:38.435Z,9.88
2023-02-22T13:41:52.437Z,9.65
2023-02-22T13:44:57.244Z,9.63
2023-02-22T13:48:11.046Z,9.57
2023-02-22T13:51:41.336Z,10.30
2023-02-22T13:54:54.350Z,9.73
2023-02-22T13:58:01.940Z,9.77
2023-02-22T14:01:03.462Z,9.52
2023-02-22T14:04:24.845Z,10.60
2023-02-22T14:07:26.279Z,11.73
2023-02-22T14:10:45.370Z,9.75
2023-02-22T14:13:58.025Z,9.77
2023-02-22T14:17:19.705Z,9.45
2023-02-22T14:20:29.929Z,10.50
2023-02-22T14:23:40.230Z,10.23
2023-02-22T14:26:42.088Z,9.95
2023-02-22T14:29:53.608Z,10.07
2023-02-22T14:32:55.380Z,9.93
2023-02-22T14:35:56.925Z,9.60
2023-02-22T14:39:08.493Z,10.98
2023-02-22T14:42:17.837Z,10.93
2023-02-22T14:45:33.233Z,11.43
2023-02-22T14:48:39.802Z,11.30
2023-02-22T14:51:42.543Z,11.18
2023-02-22T14:55:18.979Z,10.05
2023-02-22T14:58:22.597Z,9.68
2023-02-22T15:01:31.191Z,10.60
2023-02-22T15:04:35.594Z,10.90
2023-02-22T15:07:37.155Z,9.60
2023-02-22T15:10:46.014Z,10.32
2023-02-22T15:13:54.341Z,10.40
2023-02-22T15:16:59.325Z,10.13
2023-02-22T15:20:00.844Z,10.35
2023-02-22T15:23:02.365Z,10.68
2023-02-22T15:26:03.982Z,10.63
2023-02-22T15:29:25.404Z,11.60
2023-02-22T15:32:49.972Z,10.48
2023-02-22T15:35:59.523Z,11.50
2023-02-22T15:42:07.854Z,9.23
2023-02-22T15:45:20.159Z,10.13
2023-02-22T15:51:23.020Z,9.73
2023-02-22T15:54:27.563Z,9.98
2023-02-22T15:57:30.493Z,8.55
2023-02-22T16:00:36.202Z,9.50
2023-02-22T16:03:53.815Z,10.00
2023-02-22T16:07:07.998Z,8.90
2023-02-22T16:10:21.387Z,9.93
2023-02-22T16:13:32.878Z,9.68
2023-02-22T16:16:36.068Z,9.90
2023-02-22T16:19:42.749Z,9.65
2023-02-22T16:22:49.109Z,10.32
2023-02-22T16:26:05.916Z,11.38
2023-02-22T16:29:08.548Z,10.68
2023-02-22T16:32:10.364Z,10.63
2023-02-22T16:35:17.994Z,11.30
2023-02-22T16:38:19.553Z,11.93
2023-02-22T16:41:21.045Z,15.50
2023-02-22T16:44:25.179Z,17.88
2023-02-22T16:47:26.689Z,12.35
2023-02-22T16:50:28.132Z,12.90
2023-02-22T16:53:31.408Z,15.97
2023-02-22T16:56:32.943Z,13.50
2023-02-22T16:59:38.858Z,12.10
2023-02-22T17:02:40.353Z,17.50
2023-02-22T17:05:41.958Z,12.70
2023-02-22T17:08:43.500Z,11.60
2023-02-22T17:11:44.984Z,8.15
2023-02-22T17:14:46.509Z,12.00
2023-02-22T17:17:49.060Z,6.72
2023-02-22T17:20:54.353Z,7.70
2023-02-22T17:23:55.791Z,26.27
2023-02-22T17:26:59.256Z,44.57
2023-02-22T17:30:00.725Z,13.40
2023-02-22T17:33:03.847Z,13.23
2023-02-22T17:36:05.668Z,12.90
2023-02-22T17:39:10.420Z,12.43
2023-02-22T17:42:15.487Z,10.13
2023-02-22T17:45:17.174Z,12.30
2023-02-22T17:48:18.689Z,16.63
2023-02-22T17:51:21.371Z,13.77
2023-02-22T17:54:23.047Z,15.90
2023-02-22T17:57:25.202Z,18.35
2023-02-22T18:00:33.997Z,14.68
2023-02-22T18:03:39.409Z,17.05
2023-02-22T18:06:40.891Z,16.25
2023-02-22T18:09:42.382Z,15.63
2023-02-22T18:12:43.916Z,14.63
2023-02-22T18:15:46.072Z,13.67
2023-02-22T18:18:49.540Z,9.75
2023-02-22T18:21:52.373Z,10.10
2023-02-22T18:24:56.866Z,10.55
2023-02-22T18:28:01.502Z,9.10
2023-02-22T18:31:09.547Z,11.13
2023-02-22T18:34:12.967Z,11.15
2023-02-22T18:37:14.449Z,9.18
2023-02-22T18:40:18.899Z,8.43
2023-02-22T18:43:20.418Z,8.93
2023-02-22T18:46:22.874Z,8.52
2023-02-22T18:49:26.105Z,9.73
2023-02-22T18:52:27.552Z,12.10
2023-02-22T18:55:28.997Z,10.53
2023-02-22T18:58:32.724Z,10.80
2023-02-22T19:01:38.690Z,9.32
2023-02-22T19:04:40.781Z,10.40
2023-02-22T19:07:42.244Z,10.55
2023-02-22T19:10:43.677Z,10.77
2023-02-22T19:13:49.005Z,10.80
2023-02-22T19:16:50.719Z,10.65
2023-02-22T19:19:52.220Z,14.25
2023-02-22T19:22:53.743Z,14.03
2023-02-22T19:25:55.245Z,13.40
2023-02-22T19:28:57.440Z,14.70
2023-02-22T19:31:59.119Z,16.08
2023-02-22T19:38:13.260Z,15.75
2023-02-22T19:41:19.806Z,15.50
2023-02-22T19:44:22.277Z,16.52
2023-02-22T19:50:25.078Z,14.27
2023-02-22T19:53:26.563Z,13.27
2023-02-22T19:56:28.486Z,14.80
2023-02-22T19:59:30.028Z,17.15
2023-02-22T20:02:31.469Z,17.87
2023-02-22T20:05:33.802Z,17.07
2023-02-22T20:11:43.717Z,15.52
2023-02-22T20:14:46.270Z,15.93
2023-02-22T20:17:50.355Z,19.23
2023-02-22T20:20:51.901Z,17.00
2023-02-22T20:23:57.031Z,12.82
2023-02-22T20:26:58.648Z,18.92
2023-02-22T20:30:00.161Z,19.23
2023-02-22T20:33:01.794Z,18.43
2023-02-22T20:36:07.752Z,18.17
2023-02-22T20:39:13.651Z,18.73
2023-02-22T20:42:15.494Z,19.83
2023-02-22T20:45:19.854Z,18.30
2023-02-22T20:48:21.318Z,19.30
2023-02-22T20:51:23.178Z,18.40
2023-02-22T20:54:24.728Z,19.00
2023-02-22T20:57:26.507Z,16.58
2023-02-22T21:00:27.960Z,17.27
2023-02-22T21:03:30.466Z,16.83
2023-02-22T21:06:32.189Z,16.80
2023-02-22T21:09:33.953Z,15.63
2023-02-22T21:12:35.406Z,15.25
2023-02-22T21:15:37.071Z,16.03
2023-02-22T21:18:38.522Z,16.77
2023-02-22T21:21:39.964Z,10.93
2023-02-22T21:24:41.436Z,16.67
2023-02-22T21:27:42.937Z,16.00
2023-02-22T21:30:45.668Z,15.20
2023-02-22T21:33:49.222Z,14.45
2023-02-22T21:36:52.412Z,13.88
2023-02-22T21:39:53.880Z,14.90
2023-02-22T21:42:55.337Z,14.57
2023-02-22T21:45:56.906Z,15.03
2023-02-22T21:48:58.863Z,14.30
2023-02-22T21:52:00.600Z,13.95
2023-02-22T21:55:02.072Z,13.47
2023-02-22T21:58:03.641Z,13.60
2023-02-22T22:01:06.452Z,16.00
2023-02-22T22:04:09.559Z,15.65
2023-02-22T22:07:11.021Z,17.00
2023-02-22T22:10:17.888Z,15.00
2023-02-22T22:13:19.880Z,14.65
2023-02-22T22:16:22.212Z,17.02
2023-02-22T22:22:25.094Z,16.05
2023-02-22T22:25:28.386Z,21.20
2023-02-22T22:28:31.480Z,15.82
2023-02-22T22:31:33.132Z,15.38
2023-02-22T22:34:34.897Z,14.23
2023-02-22T22:37:36.357Z,15.82
2023-02-22T22:40:38.923Z,15.47
2023-02-22T22:43:45.980Z,15.60
2023-02-22T22:46:49.226Z,17.58
2023-02-22T22:49:50.672Z,21.38
2023-02-22T22:52:54.641Z,16.30
2023-02-22T22:55:56.121Z,21.60
2023-02-22T22:58:58.226Z,21.67
2023-02-22T23:02:01.784Z,20.75
2023-02-22T23:05:03.263Z,19.15
2023-02-22T23:08:05.334Z,18.50
2023-02-22T23:11:09.248Z,18.75
2023-02-22T23:14:21.539Z,20.83
2023-02-22T23:17:40.944Z,20.98
2023-02-22T23:20:42.427Z,18.38
2023-02-22T23:23:44.293Z,19.77
2023-02-22T23:26:48.880Z,18.60
2023-02-22T23:29:52.706Z,17.25
2023-02-22T23:32:54.316Z,16.83
2023-02-22T23:35:55.778Z,18.10
2023-02-22T23:38:57.290Z,14.48
2023-02-22T23:41:59.230Z,16.33
2023-02-22T23:45:00.905Z,15.20
2023-02-22T23:48:03.216Z,16.08
2023-02-22T23:51:09.165Z,17.25
2023-02-22T23:54:15.010Z,16.10
2023-02-22T23:57:17.522Z,13.85
